Cooter, Missouri
Current Conditions -  °F | °C
As of 4:53 PM on Thursday 27 Nov 2014 (Local Time) from KHKA Reporting Station
Clear Clear  
Wind Chill: 42°   Ceiling: Unl
Heat Index: 42°   Visibility: 10mi
Dew Point: 29°   Wind: 0mph
Humidity: 60%   Direction: NA
Pressure: 30.48"   Gusts: NA
Location:  36.05°N, 89.81°W
Report Text: KHKA 272253Z AUTO 00000KT 10SM CLR 06/M02 A3048 RMK AO2 SLP324 T00561017
Loading
Personal Weather Stations






























Interactive Weather Map New forecast layout! Learn more

10-Day Weather Forecast

Advertisements
Track Severe Weather on mobile